Time;durP1;ratioP1;P1;durP2;ratioP2;P2;SDS_P1;SDS_P2;PMS_P1;PMS_P2;Temp;Humidity;BMP_temperature;BMP_pressure;BME280_temperature;BME280_humidity;BME280_pressure;Samples;Min_cycle;Max_cycle;Signal;HPM_P1;HPM_P2
2021/12/19 00:02:03;;;;;;;1.93;1.80;;;4.00;98.00;;;;;;5071568;28;20960;-68
2021/12/19 00:04:39;;;;;;;1.60;1.50;;;4.00;98.00;;;;;;5071624;28;20814;-68
2021/12/19 00:09:50;;;;;;;1.10;1.00;;;3.70;98.00;;;;;;5070533;28;20442;-68
2021/12/19 00:12:18;;;;;;;1.60;1.60;;;3.70;98.00;;;;;;5071405;28;20458;-68
2021/12/19 00:14:45;;;;;;;2.40;1.60;;;3.70;98.00;;;;;;5071317;28;20578;-68
2021/12/19 00:17:12;;;;;;;1.20;1.10;;;3.70;98.00;;;;;;5074743;28;20452;-68
2021/12/19 00:19:41;;;;;;;1.60;1.60;;;3.70;98.00;;;;;;5075481;28;20512;-68
2021/12/19 00:22:10;;;;;;;1.60;1.40;;;3.80;98.00;;;;;;5075452;28;20486;-68
2021/12/19 00:24:37;;;;;;;1.50;1.27;;;3.80;98.00;;;;;;5075178;28;20935;-68
2021/12/19 00:27:05;;;;;;;1.60;1.20;;;3.80;98.00;;;;;;5075171;28;21009;-68
2021/12/19 00:29:32;;;;;;;1.10;1.00;;;3.70;98.00;;;;;;5075289;28;20470;-68
2021/12/19 00:31:59;;;;;;;1.70;1.70;;;3.60;98.00;;;;;;5075403;28;20548;-68
2021/12/19 00:34:26;;;;;;;1.40;1.23;;;3.50;98.00;;;;;;5073972;28;20501;-68
2021/12/19 00:36:54;;;;;;;1.90;1.87;;;3.70;98.00;;;;;;5075096;28;20495;-68
2021/12/19 00:39:21;;;;;;;1.20;1.00;;;3.80;98.00;;;;;;5074923;28;20515;-68
2021/12/19 00:41:52;;;;;;;1.83;1.70;;;3.90;98.00;;;;;;5075133;28;20503;-68
2021/12/19 00:44:23;;;;;;;1.83;1.13;;;3.80;98.00;;;;;;5074938;28;20453;-68
2021/12/19 00:47:04;;;;;;;1.20;1.10;;;3.70;98.00;;;;;;5075062;28;20457;-68
2021/12/19 00:49:34;;;;;;;2.70;2.50;;;3.80;98.00;;;;;;5074946;28;20480;-68
2021/12/19 00:52:04;;;;;;;2.17;1.83;;;3.80;98.00;;;;;;5074935;28;20871;-68
2021/12/19 00:54:32;;;;;;;2.33;1.50;;;3.90;98.00;;;;;;5074718;28;20959;-68
2021/12/19 00:56:59;;;;;;;1.20;1.10;;;3.80;98.00;;;;;;5074825;28;20446;-68
2021/12/19 00:59:27;;;;;;;1.20;1.00;;;3.70;98.00;;;;;;5074773;28;20508;-68
2021/12/19 01:01:54;;;;;;;1.30;1.10;;;3.70;98.00;;;;;;5074847;28;20972;-68
2021/12/19 01:04:25;;;;;;;1.10;1.00;;;3.80;98.00;;;;;;5074885;28;20464;-68
2021/12/19 01:06:52;;;;;;;1.67;1.33;;;3.80;98.00;;;;;;5074736;28;20483;-68
2021/12/19 01:09:21;;;;;;;1.10;1.00;;;3.80;98.00;;;;;;5074474;28;20515;-68
2021/12/19 01:11:49;;;;;;;2.80;1.67;;;3.80;98.00;;;;;;5074738;28;20489;-68
2021/12/19 01:14:17;;;;;;;1.20;1.10;;;3.80;98.00;;;;;;5074387;28;20962;-68
2021/12/19 01:16:46;;;;;;;4.47;1.63;;;3.80;98.00;;;;;;5074225;28;21066;-68
2021/12/19 01:19:13;;;;;;;2.33;1.30;;;3.90;98.00;;;;;;5074400;28;20950;-68
2021/12/19 01:21:40;;;;;;;1.60;1.53;;;3.70;98.00;;;;;;5074315;28;20822;-68
2021/12/19 01:24:08;;;;;;;1.10;1.00;;;3.70;98.00;;;;;;5074077;28;20507;-68
2021/12/19 01:26:37;;;;;;;1.20;1.20;;;3.80;98.00;;;;;;5074170;28;20452;-68
2021/12/19 01:29:04;;;;;;;1.37;1.20;;;3.80;98.00;;;;;;5073444;28;20537;-68
2021/12/19 01:31:31;;;;;;;1.50;1.20;;;3.80;98.00;;;;;;5073899;28;20460;-68
2021/12/19 01:33:58;;;;;;;1.30;1.10;;;3.90;98.00;;;;;;5074051;28;21012;-68
2021/12/19 01:36:25;;;;;;;2.43;1.60;;;3.70;98.00;;;;;;5074035;28;21078;-68
2021/12/19 01:38:52;;;;;;;1.97;1.43;;;3.50;98.00;;;;;;5074135;28;20543;-68
2021/12/19 01:41:19;;;;;;;3.97;2.23;;;3.60;98.00;;;;;;5073627;28;20514;-68
2021/12/19 01:43:47;;;;;;;1.20;1.17;;;3.70;98.00;;;;;;5073906;28;20461;-68
2021/12/19 01:46:15;;;;;;;4.00;1.27;;;3.70;98.00;;;;;;5073676;28;20984;-68
2021/12/19 01:48:44;;;;;;;1.20;1.10;;;3.60;98.00;;;;;;5073828;28;20540;-68
2021/12/19 01:51:11;;;;;;;3.20;1.73;;;3.60;98.00;;;;;;5073560;28;20472;-68
2021/12/19 01:53:38;;;;;;;1.40;1.20;;;3.50;98.00;;;;;;5073882;28;20456;-68
2021/12/19 01:56:07;;;;;;;2.23;1.40;;;3.40;98.00;;;;;;5073259;28;20513;-68
2021/12/19 01:58:35;;;;;;;1.10;1.00;;;3.40;98.00;;;;;;5073601;28;20538;-68
2021/12/19 02:01:04;;;;;;;1.20;1.00;;;3.50;98.00;;;;;;5072561;28;20539;-68
2021/12/19 02:03:31;;;;;;;2.23;1.30;;;3.60;98.00;;;;;;5073572;28;20465;-68
2021/12/19 02:05:58;;;;;;;1.30;1.30;;;3.50;98.00;;;;;;5073519;28;20531;-68
2021/12/19 02:08:25;;;;;;;2.37;1.40;;;3.50;98.00;;;;;;5073349;28;20458;-68
2021/12/19 02:10:52;;;;;;;1.97;1.10;;;3.60;98.00;;;;;;5073485;28;20458;-68
2021/12/19 02:13:19;;;;;;;1.97;1.53;;;3.60;98.00;;;;;;5073385;28;20535;-68
2021/12/19 02:15:47;;;;;;;1.70;1.40;;;3.60;98.00;;;;;;5073250;28;20539;-68
2021/12/19 02:18:17;;;;;;;3.10;1.83;;;3.60;98.00;;;;;;5073195;28;21006;-68
2021/12/19 02:20:50;;;;;;;1.50;1.27;;;3.50;98.00;;;;;;5073429;28;20489;-68
2021/12/19 02:23:18;;;;;;;1.50;1.40;;;3.40;98.00;;;;;;5072002;28;20944;-68
2021/12/19 02:25:54;;;;;;;2.07;1.33;;;3.40;98.00;;;;;;5073091;28;20492;-68
2021/12/19 02:28:22;;;;;;;1.93;1.20;;;3.40;98.00;;;;;;5073172;28;20488;-68
2021/12/19 02:30:49;;;;;;;1.47;1.43;;;3.30;98.00;;;;;;5073261;28;20484;-68
2021/12/19 02:33:21;;;;;;;1.10;1.00;;;3.20;98.00;;;;;;5072957;28;20493;-68
2021/12/19 02:35:57;;;;;;;1.30;1.30;;;3.20;98.00;;;;;;5072948;28;20492;-68
2021/12/19 02:49:23;;;;;;;1.10;1.03;;;3.10;98.00;;;;;;5072487;28;20495;-68
2021/12/19 02:51:53;;;;;;;1.80;1.70;;;3.20;98.00;;;;;;5072630;28;20967;-68
2021/12/19 02:54:20;;;;;;;2.50;1.10;;;3.30;98.00;;;;;;5072385;28;20488;-68
2021/12/19 02:56:47;;;;;;;1.67;1.40;;;3.20;98.00;;;;;;5072221;28;20516;-68
2021/12/19 02:59:14;;;;;;;3.47;2.57;;;3.10;98.00;;;;;;5072358;28;20456;-68
2021/12/19 03:01:44;;;;;;;1.77;1.67;;;3.00;98.00;;;;;;5072389;28;20491;-68
2021/12/19 03:04:13;;;;;;;1.30;1.30;;;3.00;98.00;;;;;;5072345;28;20488;-68
2021/12/19 03:06:45;;;;;;;1.10;1.00;;;3.00;98.00;;;;;;5072210;28;20876;-68
2021/12/19 03:09:18;;;;;;;1.37;1.30;;;3.00;98.00;;;;;;5072327;28;20453;-68
2021/12/19 03:20:10;;;;;;;1.43;1.40;;;3.30;98.00;;;;;;5072250;28;20440;-68
2021/12/19 03:22:37;;;;;;;1.50;1.30;;;3.20;98.00;;;;;;5071993;28;20464;-68
2021/12/19 03:25:06;;;;;;;1.97;1.10;;;3.20;98.00;;;;;;5072082;28;20485;-68
2021/12/19 03:27:34;;;;;;;2.90;1.60;;;3.20;98.00;;;;;;5072108;28;20457;-68
2021/12/19 03:30:01;;;;;;;1.33;1.17;;;3.10;98.00;;;;;;5071828;28;21050;-68
2021/12/19 03:32:28;;;;;;;2.83;1.70;;;3.20;98.00;;;;;;5071540;28;20488;-68
2021/12/19 03:34:55;;;;;;;3.00;1.20;;;3.30;98.00;;;;;;5071495;28;20449;-68
2021/12/19 03:37:22;;;;;;;1.30;1.30;;;3.40;98.00;;;;;;5072139;28;20494;-68
2021/12/19 03:40:06;;;;;;;1.20;1.00;;;3.40;98.00;;;;;;5072077;28;20850;-68
2021/12/19 03:42:36;;;;;;;6.80;1.80;;;3.40;98.00;;;;;;5071953;28;20829;-68
2021/12/19 03:45:04;;;;;;;2.13;1.93;;;3.20;98.00;;;;;;5072036;28;20489;-68
2021/12/19 03:47:31;;;;;;;1.60;1.50;;;3.30;98.00;;;;;;5070893;28;20495;-68
2021/12/19 03:49:59;;;;;;;1.20;1.00;;;3.20;98.00;;;;;;5071691;28;20489;-68
2021/12/19 03:52:26;;;;;;;2.90;1.17;;;3.30;98.00;;;;;;5071709;28;20461;-68
2021/12/19 03:54:53;;;;;;;1.30;1.20;;;3.20;98.00;;;;;;5071978;28;20465;-68
2021/12/19 03:57:21;;;;;;;1.20;1.13;;;3.30;98.00;;;;;;5071723;28;20532;-68
2021/12/19 03:59:49;;;;;;;1.13;1.00;;;3.30;98.00;;;;;;5071210;28;20493;-68
2021/12/19 04:02:24;;;;;;;1.43;1.20;;;3.30;98.00;;;;;;5071794;28;20461;-68
2021/12/19 04:04:51;;;;;;;4.17;1.30;;;3.30;98.00;;;;;;5071471;28;20773;-68
2021/12/19 04:07:18;;;;;;;3.30;2.00;;;3.30;98.00;;;;;;5071361;28;20889;-68
2021/12/19 04:09:45;;;;;;;1.93;1.50;;;3.20;98.00;;;;;;5071466;28;20453;-68
2021/12/19 04:12:12;;;;;;;1.43;1.20;;;3.20;98.00;;;;;;5071256;28;20502;-68
2021/12/19 04:14:39;;;;;;;1.13;1.07;;;3.30;98.00;;;;;;5071427;28;20492;-68
2021/12/19 04:17:07;;;;;;;1.47;1.23;;;3.30;98.00;;;;;;5071609;28;20900;-68
2021/12/19 04:19:35;;;;;;;1.13;1.00;;;3.30;98.00;;;;;;5071240;28;20497;-68
2021/12/19 04:22:02;;;;;;;1.87;1.27;;;3.40;98.00;;;;;;5071243;28;20495;-68
2021/12/19 04:24:30;;;;;;;1.20;1.20;;;3.40;98.00;;;;;;5070002;28;20448;-68
2021/12/19 04:26:59;;;;;;;1.10;1.00;;;3.50;98.00;;;;;;5071272;28;20485;-68
2021/12/19 04:29:27;;;;;;;1.57;1.20;;;3.30;98.00;;;;;;5071192;28;20508;-68
2021/12/19 04:31:54;;;;;;;1.57;1.40;;;3.40;98.00;;;;;;5071212;28;20464;-68
2021/12/19 04:34:24;;;;;;;1.40;1.30;;;3.30;98.00;;;;;;5071260;28;20460;-68
2021/12/19 04:36:57;;;;;;;1.30;1.13;;;3.40;98.00;;;;;;5071378;28;20477;-68
2021/12/19 04:39:37;;;;;;;1.43;1.37;;;3.30;98.00;;;;;;5071325;28;20598;-68
2021/12/19 04:53:23;;;;;;;1.57;1.47;;;3.40;98.00;;;;;;5071311;28;20468;-68
2021/12/19 04:59:13;;;;;;;4.40;1.60;;;3.20;98.00;;;;;;5071053;28;20441;-68
2021/12/19 05:04:42;;;;;;;3.20;1.33;;;3.10;98.00;;;;;;5071311;28;20459;-68
2021/12/19 05:15:27;;;;;;;1.30;1.10;;;3.20;98.00;;;;;;5074624;28;20496;-68
2021/12/19 05:17:57;;;;;;;1.93;1.83;;;3.20;98.00;;;;;;5074718;28;20519;-68
2021/12/19 05:20:28;;;;;;;4.33;1.40;;;3.10;98.00;;;;;;5074653;28;20457;-68
2021/12/19 05:23:02;;;;;;;1.93;1.20;;;3.10;98.00;;;;;;5074574;28;20503;-68
2021/12/19 05:25:29;;;;;;;3.73;1.93;;;3.20;98.00;;;;;;5074542;28;20495;-68
2021/12/19 05:27:58;;;;;;;1.20;1.13;;;3.20;98.00;;;;;;5074176;28;20877;-68
2021/12/19 05:30:26;;;;;;;1.40;1.30;;;3.20;98.00;;;;;;5074113;28;20462;-68
2021/12/19 05:32:54;;;;;;;2.40;1.67;;;3.20;98.00;;;;;;5074333;28;20463;-68
2021/12/19 05:35:31;;;;;;;3.73;1.50;;;3.20;98.00;;;;;;5074153;28;21061;-68
2021/12/19 05:46:22;;;;;;;1.30;1.20;;;3.30;98.00;;;;;;5073813;28;20488;-68
2021/12/19 05:48:49;;;;;;;1.10;0.97;;;3.40;98.00;;;;;;5073968;28;20457;-68
2021/12/19 05:51:16;;;;;;;2.90;1.97;;;3.40;98.00;;;;;;5072640;28;20480;-68
2021/12/19 05:53:44;;;;;;;1.57;1.40;;;3.20;98.00;;;;;;5072691;28;20531;-68
2021/12/19 05:56:11;;;;;;;1.30;1.10;;;3.20;98.00;;;;;;5073345;28;20511;-68
2021/12/19 05:58:38;;;;;;;2.47;1.50;;;3.20;98.00;;;;;;5073573;28;20499;-68
2021/12/19 06:01:06;;;;;;;1.10;1.00;;;3.20;98.00;;;;;;5073658;28;20492;-68
2021/12/19 06:03:33;;;;;;;2.37;1.30;;;3.10;98.00;;;;;;5073577;28;20449;-68
2021/12/19 06:06:00;;;;;;;1.10;1.00;;;3.20;98.00;;;;;;5072197;28;20449;-68
2021/12/19 06:08:27;;;;;;;2.00;1.73;;;3.20;98.00;;;;;;5073285;28;20488;-68
2021/12/19 06:10:56;;;;;;;1.10;1.00;;;3.30;98.00;;;;;;5073308;28;20544;-68
2021/12/19 06:13:23;;;;;;;1.20;1.17;;;3.30;98.00;;;;;;5073116;28;21008;-68
2021/12/19 06:15:53;;;;;;;1.20;1.20;;;3.40;98.00;;;;;;5073310;28;20473;-68
2021/12/19 06:18:20;;;;;;;2.47;1.47;;;3.40;98.00;;;;;;5073215;28;20456;-68
2021/12/19 06:20:47;;;;;;;2.13;1.77;;;3.30;98.00;;;;;;5073196;28;20449;-68
2021/12/19 06:23:14;;;;;;;2.60;1.87;;;3.40;98.00;;;;;;5073333;28;20845;-68
2021/12/19 06:25:45;;;;;;;1.43;1.30;;;3.40;98.00;;;;;;5073170;28;20489;-68
2021/12/19 06:28:14;;;;;;;1.40;1.13;;;3.40;98.00;;;;;;5073229;28;20453;-68
2021/12/19 06:30:42;;;;;;;1.10;1.07;;;3.50;98.00;;;;;;5073073;28;20489;-68
2021/12/19 06:33:11;;;;;;;1.40;1.37;;;3.30;98.00;;;;;;5073189;28;20488;-68
2021/12/19 06:35:38;;;;;;;2.30;1.27;;;3.20;98.00;;;;;;5072632;28;20967;-68
2021/12/19 06:38:06;;;;;;;1.37;1.33;;;3.20;98.00;;;;;;5073110;28;20903;-68
2021/12/19 06:40:34;;;;;;;1.10;0.90;;;3.20;98.00;;;;;;5072988;28;20453;-68
2021/12/19 06:43:01;;;;;;;1.13;1.03;;;3.20;98.00;;;;;;5073084;28;20453;-68
2021/12/19 06:45:29;;;;;;;1.87;1.20;;;3.30;98.00;;;;;;5073002;28;20449;-68
2021/12/19 06:47:57;;;;;;;1.57;1.47;;;3.30;98.00;;;;;;5072633;28;20464;-68
2021/12/19 06:50:24;;;;;;;1.10;1.00;;;3.40;98.00;;;;;;5072812;28;20513;-68
2021/12/19 06:52:52;;;;;;;1.27;1.13;;;3.40;98.00;;;;;;5072857;28;20519;-68
2021/12/19 06:55:19;;;;;;;1.50;1.40;;;3.40;98.00;;;;;;5072240;28;20944;-68
2021/12/19 06:57:47;;;;;;;1.83;1.30;;;3.50;98.00;;;;;;5071329;28;20558;-68
2021/12/19 07:00:17;;;;;;;1.10;0.90;;;3.40;98.00;;;;;;5072218;28;20498;-68
2021/12/19 07:02:46;;;;;;;1.73;1.63;;;3.50;98.00;;;;;;5072233;28;20885;-68
2021/12/19 07:05:13;;;;;;;1.47;1.40;;;3.50;98.00;;;;;;5072303;28;20461;-68
2021/12/19 07:07:42;;;;;;;1.33;1.27;;;3.50;98.00;;;;;;5072146;28;20514;-68
2021/12/19 07:10:10;;;;;;;1.20;1.10;;;3.50;98.00;;;;;;5070915;28;20457;-68
2021/12/19 07:12:37;;;;;;;1.90;1.70;;;3.50;98.00;;;;;;5072056;28;20500;-68
2021/12/19 07:15:05;;;;;;;1.10;1.00;;;3.40;98.00;;;;;;5072159;28;20549;-68
2021/12/19 07:17:32;;;;;;;3.13;1.37;;;3.50;98.00;;;;;;5072003;28;20554;-68
2021/12/19 07:20:01;;;;;;;1.20;1.20;;;3.60;98.00;;;;;;5070739;28;20888;-68
2021/12/19 07:22:27;;;;;;;1.10;1.00;;;3.50;98.00;;;;;;5072107;28;20485;-68
2021/12/19 07:24:57;;;;;;;1.67;1.23;;;3.60;98.00;;;;;;5071962;28;20483;-68
2021/12/19 07:27:24;;;;;;;1.30;1.10;;;3.60;98.00;;;;;;5071844;28;20505;-68
2021/12/19 07:29:55;;;;;;;1.10;1.10;;;3.60;98.00;;;;;;5071952;28;20507;-68
2021/12/19 07:32:24;;;;;;;1.10;0.90;;;3.70;98.00;;;;;;5054725;28;20453;-68
2021/12/19 07:34:52;;;;;;;1.70;1.33;;;3.60;98.00;;;;;;5070702;28;20456;-68
2021/12/19 07:37:21;;;;;;;1.10;1.00;;;3.60;98.00;;;;;;5071883;28;20490;-68
2021/12/19 07:39:56;;;;;;;1.10;1.10;;;3.70;98.00;;;;;;5071959;28;20526;-68
2021/12/19 07:42:23;;;;;;;1.10;1.00;;;3.70;98.00;;;;;;5071903;28;20457;-68
2021/12/19 07:44:50;;;;;;;2.23;1.20;;;3.60;98.00;;;;;;5072084;28;20491;-68
2021/12/19 07:47:17;;;;;;;2.80;1.10;;;3.60;98.00;;;;;;5071723;28;20532;-68
2021/12/19 07:49:44;;;;;;;1.10;1.03;;;3.70;98.00;;;;;;5071443;28;20553;-68
2021/12/19 07:52:11;;;;;;;1.97;1.10;;;3.60;98.00;;;;;;5070959;28;21141;-68
2021/12/19 07:54:39;;;;;;;1.10;1.00;;;3.50;98.00;;;;;;5070999;28;20489;-68
2021/12/19 07:57:06;;;;;;;1.10;1.03;;;3.50;98.00;;;;;;5071329;28;20574;-68
2021/12/19 07:59:33;;;;;;;1.20;1.17;;;3.40;98.00;;;;;;5071903;28;20922;-68
2021/12/19 08:02:02;;;;;;;1.10;0.90;;;3.50;98.00;;;;;;5070926;28;20852;-68
2021/12/19 08:04:29;;;;;;;2.70;1.47;;;3.60;98.00;;;;;;5071985;28;20532;-68
2021/12/19 08:06:56;;;;;;;1.77;1.37;;;3.60;98.00;;;;;;5071519;28;20476;-68
2021/12/19 08:09:35;;;;;;;1.30;1.10;;;3.50;98.00;;;;;;5071989;28;20536;-68
2021/12/19 08:12:05;;;;;;;1.10;1.10;;;3.30;98.00;;;;;;5070600;28;20464;-68
2021/12/19 08:14:32;;;;;;;1.43;1.03;;;3.40;98.00;;;;;;5071948;28;20461;-68
2021/12/19 08:16:59;;;;;;;1.10;0.97;;;3.40;98.00;;;;;;5071241;28;20960;-68
2021/12/19 08:19:26;;;;;;;2.50;1.10;;;3.60;98.00;;;;;;5071362;28;20507;-69
2021/12/19 08:21:53;;;;;;;2.23;1.27;;;3.50;98.00;;;;;;5071327;28;20546;-68
2021/12/19 08:24:20;;;;;;;2.03;1.90;;;3.50;98.00;;;;;;5071463;28;20460;-68
2021/12/19 08:26:47;;;;;;;1.10;1.00;;;3.50;98.00;;;;;;5069786;28;20522;-68
2021/12/19 08:29:18;;;;;;;1.73;1.30;;;3.40;98.00;;;;;;5071300;28;20493;-68
2021/12/19 08:31:45;;;;;;;1.10;0.90;;;3.40;98.00;;;;;;5071374;28;20465;-69
2021/12/19 08:34:12;;;;;;;3.53;1.73;;;3.20;98.00;;;;;;5071328;28;20566;-69
2021/12/19 08:36:39;;;;;;;1.20;1.10;;;3.40;98.00;;;;;;5069917;28;20469;-68
2021/12/19 08:39:11;;;;;;;1.20;1.20;;;3.50;98.00;;;;;;5074170;28;20603;-68
2021/12/19 08:41:38;;;;;;;1.20;1.10;;;3.70;98.00;;;;;;5074950;28;20485;-68
2021/12/19 08:44:05;;;;;;;1.20;1.10;;;3.50;98.00;;;;;;5075235;28;21031;-68
2021/12/19 08:46:35;;;;;;;1.20;1.10;;;3.40;98.00;;;;;;5075177;28;20461;-68
2021/12/19 08:49:02;;;;;;;1.10;0.93;;;3.40;98.00;;;;;;5074441;28;20484;-69
2021/12/19 08:51:34;;;;;;;1.47;1.37;;;3.50;98.00;;;;;;5074830;28;20457;-68
2021/12/19 08:54:02;;;;;;;1.20;1.20;;;3.40;98.00;;;;;;5074887;28;20452;-68
2021/12/19 08:56:29;;;;;;;1.20;1.17;;;3.40;98.00;;;;;;5074695;28;20448;-68
2021/12/19 08:58:56;;;;;;;1.67;1.63;;;3.40;98.00;;;;;;5074887;28;20516;-68
2021/12/19 09:01:23;;;;;;;1.10;1.00;;;3.50;98.00;;;;;;5074756;28;20492;-68
2021/12/19 09:03:52;;;;;;;4.40;1.93;;;3.40;98.00;;;;;;5074831;28;20541;-68
2021/12/19 09:06:19;;;;;;;1.20;1.20;;;3.40;98.00;;;;;;5074972;28;20480;-69
2021/12/19 09:08:46;;;;;;;1.20;1.20;;;3.40;98.00;;;;;;5074676;28;20464;-68
2021/12/19 09:11:14;;;;;;;1.10;1.00;;;3.50;98.00;;;;;;5074227;28;20808;-68
2021/12/19 09:13:41;;;;;;;6.40;1.10;;;3.50;98.00;;;;;;5074528;28;20460;-68
2021/12/19 09:16:08;;;;;;;1.10;0.90;;;3.40;98.00;;;;;;5074552;28;20939;-71
2021/12/19 09:18:35;;;;;;;18.27;1.67;;;3.30;98.00;;;;;;5074636;28;20587;-71
2021/12/19 09:21:04;;;;;;;1.10;0.90;;;3.20;98.00;;;;;;5071481;28;20489;-73
2021/12/19 09:23:34;;;;;;;1.10;1.10;;;3.20;98.00;;;;;;5071750;28;20544;-72
2021/12/19 09:26:01;;;;;;;1.20;1.10;;;3.20;98.00;;;;;;5071663;28;20495;-71
2021/12/19 09:28:28;;;;;;;1.10;1.00;;;3.20;98.00;;;;;;5071167;28;20533;-72
2021/12/19 09:30:56;;;;;;;1.40;1.10;;;3.20;98.00;;;;;;5071367;28;20560;-71
2021/12/19 09:33:23;;;;;;;2.80;1.93;;;3.30;98.00;;;;;;5071518;28;20530;-70
2021/12/19 09:35:50;;;;;;;1.20;1.10;;;3.40;98.00;;;;;;5071044;28;20473;-71
2021/12/19 09:38:20;;;;;;;1.30;1.10;;;3.40;98.00;;;;;;5071170;28;20520;-71
2021/12/19 09:40:48;;;;;;;1.10;0.90;;;3.50;98.00;;;;;;5071571;28;20446;-71
2021/12/19 09:43:41;;;;;;;1.20;1.03;;;3.60;98.00;;;;;;5071094;28;20522;-71
2021/12/19 09:46:10;;;;;;;2.60;1.57;;;3.70;98.00;;;;;;5071082;28;20460;-73
2021/12/19 09:48:39;;;;;;;1.40;1.30;;;3.70;98.00;;;;;;5069294;28;20454;-73
2021/12/19 09:51:06;;;;;;;1.10;1.00;;;3.60;98.00;;;;;;5069095;28;20488;-75
2021/12/19 09:53:34;;;;;;;1.10;1.03;;;3.60;98.00;;;;;;5070989;28;20510;-74
2021/12/19 09:56:02;;;;;;;1.43;1.10;;;3.70;98.00;;;;;;5070613;28;20497;-74
2021/12/19 09:58:31;;;;;;;1.10;1.00;;;3.60;98.00;;;;;;5070827;28;20535;-75
2021/12/19 10:00:58;;;;;;;1.20;1.10;;;3.60;98.00;;;;;;5070813;28;20534;-76
2021/12/19 10:03:25;;;;;;;1.10;1.00;;;3.70;98.00;;;;;;5071300;28;20563;-76
2021/12/19 10:06:18;;;;;;;1.10;0.90;;;3.80;98.00;;;;;;5070782;28;20460;-74
2021/12/19 10:08:52;;;;;;;1.40;1.10;;;3.80;98.00;;;;;;5065134;28;20546;-77
2021/12/19 10:11:34;;;;;;;1.70;1.17;;;3.90;98.00;;;;;;5070585;28;20473;-77
2021/12/19 10:14:01;;;;;;;1.10;1.00;;;3.80;98.00;;;;;;5070278;28;20535;-72
2021/12/19 10:16:30;;;;;;;1.10;0.93;;;3.90;98.00;;;;;;5070634;28;20908;-72
2021/12/19 10:18:59;;;;;;;1.30;1.13;;;3.80;98.00;;;;;;5070270;28;20529;-72
2021/12/19 10:21:28;;;;;;;1.20;1.20;;;3.80;98.00;;;;;;5070514;28;20449;-72
2021/12/19 10:24:00;;;;;;;1.10;1.00;;;3.60;98.00;;;;;;5070423;28;20464;-72
2021/12/19 10:26:42;;;;;;;1.10;1.00;;;3.60;98.00;;;;;;5070121;28;20510;-72
2021/12/19 10:29:10;;;;;;;1.10;1.00;;;3.60;98.00;;;;;;5070547;28;20877;-72
2021/12/19 10:31:37;;;;;;;1.10;1.00;;;3.60;98.00;;;;;;5070396;28;20482;-72
2021/12/19 10:34:22;;;;;;;1.10;1.00;;;3.80;98.00;;;;;;5070302;28;20546;-71
2021/12/19 10:36:49;;;;;;;1.20;1.10;;;3.80;98.00;;;;;;5070161;28;20967;-74
2021/12/19 10:39:19;;;;;;;1.10;1.00;;;3.90;98.00;;;;;;5070038;28;20525;-75
2021/12/19 10:41:58;;;;;;;1.20;1.00;;;3.80;98.00;;;;;;5070107;28;20485;-74
2021/12/19 10:47:21;;;;;;;1.10;1.00;;;3.80;98.00;;;;;;5064146;28;20566;-74
2021/12/19 10:49:52;;;;;;;1.10;1.00;;;3.80;98.00;;;;;;5066576;28;20496;-73
2021/12/19 10:52:33;;;;;;;1.10;0.90;;;3.70;98.00;;;;;;5069836;28;20854;-72
2021/12/19 10:55:04;;;;;;;1.10;0.90;;;3.70;98.00;;;;;;5070438;28;20859;-73
2021/12/19 10:57:36;;;;;;;1.50;1.27;;;3.70;98.00;;;;;;5069501;28;20473;-78
2021/12/19 11:00:07;;;;;;;1.33;1.10;;;3.70;98.00;;;;;;5067961;28;20457;-72
2021/12/19 11:02:36;;;;;;;1.10;1.00;;;3.70;98.00;;;;;;5069603;28;20580;-73
2021/12/19 11:05:03;;;;;;;1.10;1.00;;;3.80;98.00;;;;;;5068574;28;20535;-73
2021/12/19 11:07:30;;;;;;;4.70;1.87;;;3.90;98.00;;;;;;5069529;28;20475;-74
2021/12/19 11:09:57;;;;;;;1.10;1.00;;;3.80;98.00;;;;;;5069083;28;20518;-73
2021/12/19 11:12:25;;;;;;;1.10;0.90;;;3.70;98.00;;;;;;5069490;28;20461;-73
2021/12/19 11:14:52;;;;;;;1.10;1.10;;;3.70;98.00;;;;;;5069260;28;20822;-71
2021/12/19 11:17:22;;;;;;;1.10;0.90;;;3.80;98.00;;;;;;5069159;28;20452;-70
2021/12/19 11:19:50;;;;;;;1.10;1.00;;;3.70;98.00;;;;;;5068861;28;20487;-72
2021/12/19 11:22:24;;;;;;;1.27;1.07;;;3.80;98.00;;;;;;5069399;28;20497;-72
2021/12/19 11:24:52;;;;;;;1.10;1.00;;;3.90;98.00;;;;;;5069365;28;20464;-72
2021/12/19 11:27:19;;;;;;;1.53;1.27;;;3.80;98.00;;;;;;5069165;28;20457;-72
2021/12/19 11:29:50;;;;;;;1.10;0.90;;;3.80;98.00;;;;;;5069210;28;20493;-72
2021/12/19 11:32:21;;;;;;;3.30;1.30;;;3.90;98.00;;;;;;5069187;28;20453;-72
2021/12/19 11:35:08;;;;;;;1.93;1.10;;;3.80;98.00;;;;;;5069277;28;20523;-72
2021/12/19 11:37:39;;;;;;;1.10;1.10;;;3.90;98.00;;;;;;5069155;28;20508;-72
2021/12/19 11:40:08;;;;;;;1.10;1.00;;;4.00;98.00;;;;;;5069048;28;20464;-72
2021/12/19 11:42:37;;;;;;;1.20;1.10;;;3.90;98.00;;;;;;5069054;28;20547;-72
2021/12/19 11:45:31;;;;;;;1.10;0.90;;;3.90;98.00;;;;;;5068605;28;21034;-72
2021/12/19 11:48:08;;;;;;;1.23;1.07;;;3.90;98.00;;;;;;5069600;28;20461;-72
2021/12/19 11:50:37;;;;;;;1.10;1.00;;;3.90;98.00;;;;;;5067212;28;21061;-72
2021/12/19 11:53:26;;;;;;;1.30;1.20;;;3.90;98.00;;;;;;5068963;28;20932;-72
2021/12/19 11:55:55;;;;;;;1.10;1.00;;;3.90;98.00;;;;;;5069214;28;20466;-71
2021/12/19 11:58:28;;;;;;;1.10;0.90;;;3.90;98.00;;;;;;5068999;28;20482;-72
2021/12/19 12:01:03;;;;;;;1.20;1.10;;;3.80;98.00;;;;;;5069106;28;20928;-72
2021/12/19 12:03:40;;;;;;;1.10;1.00;;;3.80;98.00;;;;;;5069514;28;20514;-72
2021/12/19 12:06:36;;;;;;;1.10;1.00;;;3.70;98.00;;;;;;5061522;28;20571;-72
2021/12/19 12:09:12;;;;;;;1.20;1.17;;;3.80;98.00;;;;;;5068844;28;20519;-72
2021/12/19 12:11:42;;;;;;;1.10;1.00;;;3.80;98.00;;;;;;5069864;28;20537;-72
2021/12/19 12:14:26;;;;;;;1.10;1.00;;;3.80;98.00;;;;;;5073370;28;20796;-70
2021/12/19 12:17:00;;;;;;;1.10;0.93;;;3.70;98.00;;;;;;5071903;28;20456;-71
2021/12/19 12:19:42;;;;;;;1.10;0.97;;;3.70;98.00;;;;;;5072011;28;20987;-70
2021/12/19 12:22:36;;;;;;;1.10;0.97;;;3.70;98.00;;;;;;5065157;28;20514;-70
2021/12/19 12:25:10;;;;;;;1.10;0.90;;;3.70;98.00;;;;;;5072787;28;20514;-71
2021/12/19 12:27:38;;;;;;;1.20;1.00;;;3.60;98.00;;;;;;5072843;28;20873;-71
2021/12/19 12:30:07;;;;;;;1.10;1.00;;;3.60;98.00;;;;;;5072594;28;20488;-71
2021/12/19 12:32:35;;;;;;;1.43;1.20;;;3.60;98.00;;;;;;5072691;28;20465;-71
2021/12/19 12:35:03;;;;;;;1.10;0.90;;;3.60;98.00;;;;;;5072621;28;20538;-71
2021/12/19 12:37:30;;;;;;;1.60;1.17;;;3.50;98.00;;;;;;5072328;28;20444;-71
2021/12/19 12:40:17;;;;;;;1.10;0.90;;;3.50;98.00;;;;;;5071872;28;20571;-71
2021/12/19 12:43:02;;;;;;;1.10;1.00;;;3.40;98.00;;;;;;5072745;28;20800;-71
2021/12/19 12:45:31;;;;;;;1.10;1.03;;;3.60;98.00;;;;;;5072300;28;20503;-71
2021/12/19 12:47:59;;;;;;;1.33;1.20;;;3.60;98.00;;;;;;5072865;28;20547;-71
2021/12/19 12:50:27;;;;;;;1.30;1.10;;;3.60;98.00;;;;;;5070839;28;20518;-71
2021/12/19 12:52:58;;;;;;;1.10;1.00;;;3.60;98.00;;;;;;5072436;28;20510;-71
2021/12/19 12:55:25;;;;;;;1.20;1.10;;;3.60;98.00;;;;;;5063511;28;20453;-72
2021/12/19 12:57:52;;;;;;;1.20;1.10;;;3.70;98.00;;;;;;5070344;28;20531;-71
2021/12/19 13:00:21;;;;;;;1.10;1.00;;;3.60;98.00;;;;;;5071553;28;20456;-71
2021/12/19 13:02:58;;;;;;;1.77;1.10;;;3.50;98.00;;;;;;5072187;28;20978;-71
2021/12/19 13:05:27;;;;;;;1.10;1.00;;;3.50;98.00;;;;;;5064793;28;20456;-71
2021/12/19 13:07:54;;;;;;;1.70;1.07;;;3.50;98.00;;;;;;5072158;28;20469;-71
2021/12/19 13:10:25;;;;;;;1.10;1.00;;;3.50;98.00;;;;;;5071978;28;20511;-69
2021/12/19 13:12:52;;;;;;;1.20;1.00;;;3.50;98.00;;;;;;5072288;28;20450;-70
2021/12/19 13:15:19;;;;;;;1.10;0.90;;;3.40;98.00;;;;;;5072047;28;20457;-70
2021/12/19 13:17:49;;;;;;;1.10;1.00;;;3.40;98.00;;;;;;5072061;28;20453;-70
2021/12/19 13:20:18;;;;;;;1.10;1.00;;;3.50;98.00;;;;;;5072256;28;20991;-70
2021/12/19 13:22:48;;;;;;;1.10;1.10;;;3.50;98.00;;;;;;5071510;28;20506;-71
2021/12/19 13:25:18;;;;;;;1.10;1.00;;;3.50;98.00;;;;;;5071308;28;20500;-71
2021/12/19 13:27:48;;;;;;;1.10;0.90;;;3.40;98.00;;;;;;5071687;28;20727;-70
2021/12/19 13:30:19;;;;;;;1.53;1.10;;;3.50;98.00;;;;;;5071778;28;20808;-70
2021/12/19 13:32:49;;;;;;;1.30;1.20;;;3.50;98.00;;;;;;5071816;28;21128;-70
2021/12/19 13:35:26;;;;;;;1.10;0.97;;;3.60;98.00;;;;;;5071838;28;20469;-70
2021/12/19 13:38:03;;;;;;;1.10;0.93;;;3.60;98.00;;;;;;5071545;28;20545;-70
2021/12/19 13:40:32;;;;;;;1.10;1.10;;;3.50;98.00;;;;;;5071402;28;20458;-71
2021/12/19 13:43:02;;;;;;;1.43;1.30;;;3.60;98.00;;;;;;5074211;28;20493;-71
2021/12/19 13:45:44;;;;;;;2.47;1.43;;;3.60;98.00;;;;;;5073584;28;20508;-72
2021/12/19 13:48:20;;;;;;;1.30;1.10;;;3.60;98.00;;;;;;5074280;28;20526;-71
2021/12/19 13:50:49;;;;;;;1.10;1.00;;;3.50;98.00;;;;;;5074091;28;20561;-71
2021/12/19 13:53:19;;;;;;;1.30;1.03;;;3.60;98.00;;;;;;5074038;28;20479;-72
2021/12/19 13:55:50;;;;;;;1.30;1.20;;;3.70;98.00;;;;;;5073440;28;20460;-71
2021/12/19 13:58:20;;;;;;;1.10;1.00;;;3.70;98.00;;;;;;5073640;28;21036;-71
2021/12/19 14:00:51;;;;;;;1.10;0.90;;;3.70;98.00;;;;;;5073502;28;20465;-71
2021/12/19 14:03:19;;;;;;;1.10;1.00;;;3.80;98.00;;;;;;5073524;28;20472;-71
2021/12/19 14:05:48;;;;;;;2.80;1.30;;;3.80;98.00;;;;;;5073616;28;20506;-71
2021/12/19 14:08:28;;;;;;;1.10;1.00;;;3.60;98.00;;;;;;5073375;28;20871;-71
2021/12/19 14:11:13;;;;;;;1.10;1.10;;;3.60;98.00;;;;;;5073263;28;20486;-70